createdAt,value
2023-04-20T00:00:17.968Z,0.55
2023-04-20T00:01:18.045Z,0.52
2023-04-20T00:02:18.165Z,0.53
2023-04-20T00:03:18.249Z,0.52
2023-04-20T00:04:18.316Z,0.51
2023-04-20T00:05:18.306Z,0.53
2023-04-20T00:06:18.230Z,0.51
2023-04-20T00:07:18.302Z,0.54
2023-04-20T00:08:18.393Z,0.52
2023-04-20T00:09:18.661Z,0.52
2023-04-20T00:10:18.516Z,0.51
2023-04-20T00:11:18.566Z,0.51
2023-04-20T00:12:18.643Z,0.52
2023-04-20T00:13:18.627Z,0.52
2023-04-20T00:14:18.678Z,0.53
2023-04-20T00:15:18.778Z,0.53
2023-04-20T00:16:18.834Z,0.53
2023-04-20T00:17:18.868Z,0.53
2023-04-20T00:18:18.808Z,0.54
2023-04-20T00:19:19.005Z,0.54
2023-04-20T00:20:18.935Z,0.52
2023-04-20T00:21:18.951Z,0.51
2023-04-20T00:22:18.978Z,0.51
2023-04-20T00:23:19.049Z,0.52
2023-04-20T00:24:19.015Z,0.52
2023-04-20T00:25:19.044Z,0.53
2023-04-20T00:26:19.110Z,0.53
2023-04-20T00:27:19.907Z,0.53
2023-04-20T00:28:19.179Z,0.55
2023-04-20T00:29:19.261Z,0.53
2023-04-20T00:30:19.204Z,0.51
2023-04-20T00:31:19.268Z,0.53
2023-04-20T00:32:19.228Z,0.50
2023-04-20T00:33:19.259Z,0.51
2023-04-20T00:34:19.286Z,0.51
2023-04-20T00:35:19.284Z,0.53
2023-04-20T00:36:19.269Z,0.51
2023-04-20T00:37:19.285Z,0.51
2023-04-20T00:38:19.309Z,0.51
2023-04-20T00:39:19.411Z,0.50
2023-04-20T00:40:19.352Z,0.53
2023-04-20T00:41:19.365Z,0.54
2023-04-20T00:42:19.342Z,0.50
2023-04-20T00:43:19.393Z,0.53
2023-04-20T00:44:19.375Z,0.53
2023-04-20T00:45:19.410Z,0.51
2023-04-20T00:46:19.469Z,0.53
2023-04-20T00:47:19.506Z,0.51
2023-04-20T00:48:19.500Z,0.53
2023-04-20T00:49:19.685Z,0.50
2023-04-20T00:50:19.452Z,0.54
2023-04-20T00:51:19.436Z,0.54
2023-04-20T00:52:19.459Z,0.52
2023-04-20T00:53:19.464Z,0.54
2023-04-20T00:54:19.474Z,0.53
2023-04-20T00:55:19.457Z,0.54
2023-04-20T00:56:19.547Z,0.52
2023-04-20T00:57:19.484Z,0.55
2023-04-20T00:58:19.475Z,0.53
2023-04-20T00:59:19.533Z,0.53
2023-04-20T01:00:19.478Z,0.51
2023-04-20T01:01:19.478Z,0.51
2023-04-20T01:02:19.561Z,0.54
2023-04-20T01:03:19.695Z,0.54
2023-04-20T01:04:19.592Z,0.53
2023-04-20T01:05:19.490Z,0.51
2023-04-20T01:06:19.540Z,0.52
2023-04-20T01:07:19.579Z,0.53
2023-04-20T01:08:19.524Z,0.54
2023-04-20T01:09:19.760Z,0.53
2023-04-20T01:10:19.557Z,0.50
2023-04-20T01:11:19.588Z,0.53
2023-04-20T01:12:19.580Z,0.53
2023-04-20T01:13:19.567Z,0.53
2023-04-20T01:14:19.591Z,0.53
2023-04-20T01:15:19.602Z,0.51
2023-04-20T01:16:19.690Z,0.53
2023-04-20T01:17:19.654Z,0.53
2023-04-20T01:18:19.617Z,0.51
2023-04-20T01:19:19.781Z,0.50
2023-04-20T01:20:19.626Z,0.52
2023-04-20T01:21:19.640Z,0.51
2023-04-20T01:22:19.650Z,0.52
2023-04-20T01:23:19.614Z,0.52
2023-04-20T01:24:19.636Z,0.50
2023-04-20T01:25:19.619Z,0.52
2023-04-20T01:26:19.649Z,0.52
2023-04-20T01:27:19.644Z,0.51
2023-04-20T01:28:20.221Z,0.51
2023-04-20T01:29:19.723Z,0.51
2023-04-20T01:30:19.629Z,0.51
2023-04-20T01:31:19.628Z,0.50
2023-04-20T01:32:19.630Z,0.52
2023-04-20T01:33:19.597Z,0.52
2023-04-20T01:34:19.602Z,0.53
2023-04-20T01:35:19.593Z,0.50
2023-04-20T01:36:19.622Z,0.53
2023-04-20T01:37:19.600Z,0.53
2023-04-20T01:38:19.633Z,0.51
2023-04-20T01:39:20.012Z,0.51
2023-04-20T01:40:19.632Z,0.52
2023-04-20T01:41:19.652Z,0.56
2023-04-20T01:42:19.586Z,0.55
2023-04-20T01:43:19.572Z,0.55
2023-04-20T01:44:19.626Z,0.56
2023-04-20T01:45:19.588Z,0.53
2023-04-20T01:46:19.646Z,0.56
2023-04-20T01:47:19.622Z,0.54
2023-04-20T01:48:19.617Z,0.53
2023-04-20T01:49:19.821Z,0.54
2023-04-20T01:50:19.667Z,0.55
2023-04-20T01:51:19.630Z,0.53
2023-04-20T01:52:19.682Z,0.52
2023-04-20T01:53:19.628Z,0.53
2023-04-20T01:54:19.648Z,0.53
2023-04-20T01:55:20.227Z,0.55
2023-04-20T01:56:19.627Z,0.55
2023-04-20T01:57:19.649Z,0.53
2023-04-20T01:58:19.668Z,0.54
2023-04-20T01:59:19.800Z,0.54
2023-04-20T02:00:19.630Z,0.54
2023-04-20T02:01:19.685Z,0.51
2023-04-20T02:02:19.721Z,0.50
2023-04-20T02:03:19.803Z,0.52
2023-04-20T02:04:19.705Z,0.50
2023-04-20T02:05:19.652Z,0.52
2023-04-20T02:06:19.654Z,0.53
2023-04-20T02:07:19.736Z,0.55
2023-04-20T02:08:19.651Z,0.55
2023-04-20T02:09:19.751Z,0.55
2023-04-20T02:10:19.694Z,0.55
2023-04-20T02:11:19.644Z,0.54
2023-04-20T02:12:19.644Z,0.53
2023-04-20T02:13:19.658Z,0.53
2023-04-20T02:14:19.670Z,0.54
2023-04-20T02:15:19.666Z,0.53
2023-04-20T02:16:19.669Z,0.53
2023-04-20T02:17:19.818Z,0.52
2023-04-20T02:18:19.688Z,0.53
2023-04-20T02:19:19.779Z,0.53
2023-04-20T02:20:19.696Z,0.53
2023-04-20T02:21:19.696Z,0.54
2023-04-20T02:22:19.721Z,0.53
2023-04-20T02:23:19.703Z,0.54
2023-04-20T02:24:19.690Z,0.54
2023-04-20T02:25:19.719Z,0.55
2023-04-20T02:26:19.759Z,0.53
2023-04-20T02:27:19.747Z,0.52
2023-04-20T02:28:19.750Z,0.51
2023-04-20T02:29:20.551Z,0.51
2023-04-20T02:30:19.756Z,0.52
2023-04-20T02:31:19.791Z,0.52
2023-04-20T02:32:19.802Z,0.52
2023-04-20T02:33:19.750Z,0.54
2023-04-20T02:34:19.795Z,0.52
2023-04-20T02:35:19.789Z,0.52
2023-04-20T02:36:19.765Z,0.52
2023-04-20T02:37:19.779Z,0.54
2023-04-20T02:38:19.775Z,0.52
2023-04-20T02:39:20.050Z,0.53
2023-04-20T02:40:19.794Z,0.54
2023-04-20T02:41:19.813Z,0.54
2023-04-20T02:42:19.777Z,0.52
2023-04-20T02:43:19.837Z,0.54
2023-04-20T02:44:19.849Z,0.52
2023-04-20T02:45:19.860Z,0.53
2023-04-20T02:46:19.902Z,0.55
2023-04-20T02:47:19.956Z,0.54
2023-04-20T02:48:19.871Z,0.51
2023-04-20T02:49:19.884Z,0.52
2023-04-20T02:50:19.904Z,0.50
2023-04-20T02:51:19.915Z,0.50
2023-04-20T02:52:19.906Z,0.53
2023-04-20T02:53:19.915Z,0.54
2023-04-20T02:54:19.881Z,0.56
2023-04-20T02:55:19.886Z,0.56
2023-04-20T02:56:19.943Z,0.55
2023-04-20T02:57:19.936Z,0.52
2023-04-20T02:58:19.898Z,0.51
2023-04-20T02:59:19.943Z,0.53
2023-04-20T03:00:19.926Z,0.53
2023-04-20T03:01:19.970Z,0.54
2023-04-20T03:02:19.981Z,0.55
2023-04-20T03:03:20.026Z,0.54
2023-04-20T03:04:20.005Z,0.54
2023-04-20T03:05:19.943Z,0.55
2023-04-20T03:06:19.976Z,0.55
2023-04-20T03:07:19.979Z,0.54
2023-04-20T03:08:19.966Z,0.55
2023-04-20T03:09:20.029Z,0.57
2023-04-20T03:10:19.994Z,0.58
2023-04-20T03:11:19.973Z,0.56
2023-04-20T03:12:20.014Z,0.57
2023-04-20T03:13:19.985Z,0.58
2023-04-20T03:14:20.047Z,0.57
2023-04-20T03:15:20.024Z,0.56
2023-04-20T03:16:20.098Z,0.56
2023-04-20T03:17:20.118Z,0.60
2023-04-20T03:18:20.040Z,0.60
2023-04-20T03:19:20.083Z,0.58
2023-04-20T03:20:20.039Z,0.59
2023-04-20T03:21:20.093Z,0.59
2023-04-20T03:22:20.074Z,0.56
2023-04-20T03:23:20.074Z,0.59
2023-04-20T03:24:20.125Z,0.57
2023-04-20T03:25:20.073Z,0.59
2023-04-20T03:26:20.053Z,0.61
2023-04-20T03:27:20.135Z,0.60
2023-04-20T03:28:20.109Z,0.59
2023-04-20T03:29:20.302Z,0.58
2023-04-20T03:30:21.752Z,0.59
2023-04-20T03:31:20.152Z,0.57
2023-04-20T03:32:20.192Z,0.56
2023-04-20T03:33:20.134Z,0.56
2023-04-20T03:34:20.197Z,0.59
2023-04-20T03:35:20.145Z,0.58
2023-04-20T03:36:20.139Z,0.58
2023-04-20T03:37:20.169Z,0.58
2023-04-20T03:38:20.146Z,0.58
2023-04-20T03:39:20.357Z,0.59
2023-04-20T03:40:20.172Z,0.59
2023-04-20T03:41:20.199Z,0.58
2023-04-20T03:42:20.205Z,0.57
2023-04-20T03:43:20.231Z,0.57
2023-04-20T03:44:20.270Z,0.58
2023-04-20T03:45:20.269Z,0.58
2023-04-20T03:46:22.026Z,0.57
2023-04-20T03:47:20.261Z,0.59
2023-04-20T03:48:20.285Z,0.60
2023-04-20T03:49:20.302Z,0.57
2023-04-20T03:50:20.303Z,0.56
2023-04-20T03:51:20.250Z,0.57
2023-04-20T03:52:20.279Z,0.57
2023-04-20T03:53:20.253Z,0.58
2023-04-20T03:54:20.287Z,0.59
2023-04-20T03:55:20.260Z,0.58
2023-04-20T03:56:20.280Z,0.57
2023-04-20T03:57:20.272Z,0.57
2023-04-20T03:58:20.236Z,0.57
2023-04-20T03:59:20.261Z,0.58
2023-04-20T04:00:20.256Z,0.55
2023-04-20T04:01:20.269Z,0.56
2023-04-20T04:02:20.343Z,0.56
2023-04-20T04:03:20.376Z,0.58
2023-04-20T04:04:20.533Z,0.53
2023-04-20T04:05:20.287Z,0.55
2023-04-20T04:06:20.246Z,0.55
2023-04-20T04:07:20.259Z,0.56
2023-04-20T04:08:20.260Z,0.55
2023-04-20T04:09:20.312Z,0.58
2023-04-20T04:10:20.287Z,0.57
2023-04-20T04:11:20.334Z,0.56
2023-04-20T04:12:20.338Z,0.57
2023-04-20T04:13:20.313Z,0.56
2023-04-20T04:14:20.299Z,0.58
2023-04-20T04:15:20.299Z,0.58
2023-04-20T04:16:20.274Z,0.59
2023-04-20T04:17:20.318Z,0.59
2023-04-20T04:18:20.320Z,0.60
2023-04-20T04:19:20.417Z,0.59
2023-04-20T04:20:20.297Z,0.58
2023-04-20T04:21:20.309Z,0.58
2023-04-20T04:22:20.311Z,0.59
2023-04-20T04:23:20.274Z,0.56
2023-04-20T04:24:20.308Z,0.58
2023-04-20T04:25:20.371Z,0.59
2023-04-20T04:26:20.337Z,0.60
2023-04-20T04:27:20.296Z,0.57
2023-04-20T04:28:20.322Z,0.58
2023-04-20T04:29:20.432Z,0.58
2023-04-20T04:30:20.316Z,0.58
2023-04-20T04:31:20.347Z,0.59
2023-04-20T04:32:20.296Z,0.59
2023-04-20T04:33:20.302Z,0.60
2023-04-20T04:34:20.315Z,0.59
2023-04-20T04:35:20.368Z,0.58
2023-04-20T04:36:20.327Z,0.60
2023-04-20T04:37:20.346Z,0.60
2023-04-20T04:38:20.313Z,0.62
2023-04-20T04:39:20.317Z,0.62
2023-04-20T04:40:20.315Z,0.61
2023-04-20T04:41:20.304Z,0.64
2023-04-20T04:42:20.327Z,0.61
2023-04-20T04:43:20.348Z,0.61
2023-04-20T04:44:20.315Z,0.63
2023-04-20T04:45:20.300Z,0.62
2023-04-20T04:46:20.297Z,0.62
2023-04-20T04:47:20.308Z,0.63
2023-04-20T04:48:20.333Z,0.61
2023-04-20T04:49:20.699Z,0.61
2023-04-20T04:50:20.393Z,0.60
2023-04-20T04:51:20.284Z,0.60
2023-04-20T04:52:20.284Z,0.64
2023-04-20T04:53:20.302Z,0.65
2023-04-20T04:54:20.326Z,0.66
2023-04-20T04:55:20.319Z,0.68
2023-04-20T04:56:20.275Z,0.69
2023-04-20T04:57:20.269Z,0.71
2023-04-20T04:58:20.269Z,0.73
2023-04-20T04:59:20.300Z,0.75
2023-04-20T05:00:20.254Z,0.78
2023-04-20T05:01:20.338Z,0.79
2023-04-20T05:02:20.599Z,0.88
2023-04-20T05:03:20.392Z,0.86
2023-04-20T05:04:20.422Z,0.92
2023-04-20T05:05:20.267Z,0.92
2023-04-20T05:06:20.304Z,0.96
2023-04-20T05:07:20.292Z,1.02
2023-04-20T05:08:20.303Z,1.08
2023-04-20T05:09:20.414Z,1.12
2023-04-20T05:10:20.291Z,1.15
2023-04-20T05:11:20.257Z,1.18
2023-04-20T05:12:20.251Z,1.26
2023-04-20T05:13:20.252Z,1.36
2023-04-20T05:14:20.281Z,1.40
2023-04-20T05:15:20.264Z,1.49
2023-04-20T05:16:20.319Z,1.54
2023-04-20T05:17:20.311Z,1.59
2023-04-20T05:18:20.273Z,1.67
2023-04-20T05:19:20.773Z,1.72
2023-04-20T05:20:20.259Z,1.80
2023-04-20T05:21:20.222Z,1.79
2023-04-20T05:22:20.263Z,1.89
2023-04-20T05:23:20.273Z,1.87
2023-04-20T05:24:20.286Z,2.02
2023-04-20T05:25:20.356Z,2.10
2023-04-20T05:26:20.354Z,2.19
2023-04-20T05:27:20.440Z,2.24
2023-04-20T05:28:20.460Z,2.36
2023-04-20T05:29:20.537Z,2.49
2023-04-20T05:30:22.038Z,2.46
2023-04-20T05:31:20.599Z,2.58
2023-04-20T05:32:21.431Z,2.44
2023-04-20T05:33:20.657Z,2.59
2023-04-20T05:34:20.722Z,2.48
2023-04-20T05:35:20.752Z,2.46
2023-04-20T05:36:20.807Z,2.55
2023-04-20T05:37:20.851Z,2.91
2023-04-20T05:38:20.907Z,2.96
2023-04-20T05:39:21.067Z,3.60
2023-04-20T05:40:21.037Z,3.69
2023-04-20T05:41:21.031Z,3.82
2023-04-20T05:42:21.086Z,3.92
2023-04-20T05:43:21.144Z,4.30
2023-04-20T05:44:21.176Z,4.24
2023-04-20T05:45:21.215Z,4.21
2023-04-20T05:46:21.403Z,4.60
2023-04-20T05:47:21.406Z,4.44
2023-04-20T05:48:21.417Z,4.58
2023-04-20T05:49:21.804Z,4.85
2023-04-20T05:50:21.512Z,5.23
2023-04-20T05:51:21.608Z,5.59
2023-04-20T05:52:21.680Z,6.22
2023-04-20T05:53:21.757Z,6.23
2023-04-20T05:54:21.826Z,6.29
2023-04-20T05:55:22.757Z,6.98
2023-04-20T05:56:21.877Z,6.68
2023-04-20T05:57:21.963Z,7.02
2023-04-20T05:58:21.988Z,7.42
2023-04-20T05:59:22.328Z,7.30
2023-04-20T06:00:24.441Z,7.24
2023-04-20T06:01:22.158Z,7.24
2023-04-20T06:02:22.265Z,7.38
2023-04-20T06:03:22.190Z,6.81
2023-04-20T06:04:22.181Z,7.22
2023-04-20T06:05:22.148Z,7.70
2023-04-20T06:06:22.036Z,7.50
2023-04-20T06:07:22.152Z,7.63
2023-04-20T06:08:22.053Z,7.92
2023-04-20T06:09:22.312Z,8.49
2023-04-20T06:10:22.053Z,8.51
2023-04-20T06:11:22.075Z,8.84
2023-04-20T06:12:22.060Z,9.05
2023-04-20T06:13:22.030Z,9.13
2023-04-20T06:14:22.016Z,9.38
2023-04-20T06:15:21.994Z,9.05
2023-04-20T06:16:22.026Z,8.83
2023-04-20T06:17:22.036Z,8.99
2023-04-20T06:18:21.939Z,9.31
2023-04-20T06:19:21.965Z,9.27
2023-04-20T06:20:21.950Z,9.13
2023-04-20T06:21:21.923Z,10.09
2023-04-20T06:22:21.973Z,9.83
2023-04-20T06:23:21.939Z,9.96
2023-04-20T06:24:21.956Z,10.10
2023-04-20T06:25:21.940Z,10.15
2023-04-20T06:26:22.799Z,10.43
2023-04-20T06:27:21.949Z,10.75
2023-04-20T06:28:21.906Z,10.76
2023-04-20T06:29:21.919Z,10.98
2023-04-20T06:30:21.900Z,11.15
2023-04-20T06:31:22.014Z,11.38
2023-04-20T06:32:21.906Z,10.73
2023-04-20T06:33:21.873Z,11.20
2023-04-20T06:34:21.903Z,11.07
2023-04-20T06:35:21.897Z,11.12
2023-04-20T06:36:21.865Z,11.29
2023-04-20T06:37:21.846Z,11.90
2023-04-20T06:38:21.907Z,11.83
2023-04-20T06:39:21.874Z,11.78
2023-04-20T06:40:21.820Z,11.93
2023-04-20T06:41:21.839Z,12.01
2023-04-20T06:42:21.855Z,12.45
2023-04-20T06:43:21.833Z,12.59
2023-04-20T06:44:21.828Z,13.85
2023-04-20T06:45:21.826Z,13.07
2023-04-20T06:46:21.818Z,14.08
2023-04-20T06:47:21.838Z,15.44
2023-04-20T06:48:30.664Z,15.24
2023-04-20T06:49:22.846Z,15.25
2023-04-20T06:50:21.785Z,14.99
2023-04-20T06:51:21.765Z,14.79
2023-04-20T06:52:21.800Z,14.32
2023-04-20T06:53:21.778Z,13.99
2023-04-20T06:54:21.809Z,14.21
2023-04-20T06:55:21.869Z,14.19
2023-04-20T06:56:21.815Z,14.58
2023-04-20T06:57:21.754Z,13.26
2023-04-20T06:58:21.737Z,13.97
2023-04-20T06:59:21.740Z,14.96
2023-04-20T07:00:21.743Z,14.52
2023-04-20T07:01:21.806Z,14.67
2023-04-20T07:02:21.893Z,13.74
2023-04-20T07:03:21.811Z,13.12
2023-04-20T07:04:21.766Z,13.85
2023-04-20T07:05:21.725Z,14.61
2023-04-20T07:06:21.707Z,14.52
2023-04-20T07:07:21.673Z,15.39
2023-04-20T07:08:21.704Z,15.38
2023-04-20T07:09:21.818Z,15.26
2023-04-20T07:10:21.721Z,16.12
2023-04-20T07:11:21.707Z,15.40
2023-04-20T07:12:21.684Z,15.82
2023-04-20T07:13:21.673Z,15.98
2023-04-20T07:14:21.650Z,15.80
2023-04-20T07:15:21.674Z,16.51
2023-04-20T07:16:21.722Z,16.57
2023-04-20T07:17:21.652Z,16.42
2023-04-20T07:18:21.662Z,16.45
2023-04-20T07:19:21.731Z,16.08
2023-04-20T07:20:21.721Z,16.15
2023-04-20T07:21:21.759Z,16.37
2023-04-20T07:22:21.746Z,16.73
2023-04-20T07:23:21.724Z,16.59
2023-04-20T07:24:21.749Z,16.61
2023-04-20T07:25:21.773Z,16.85
2023-04-20T07:26:21.787Z,16.26
2023-04-20T07:27:21.843Z,15.89
2023-04-20T07:28:21.795Z,16.33
2023-04-20T07:29:21.864Z,15.58
2023-04-20T07:30:21.816Z,15.05
2023-04-20T07:31:21.989Z,15.73
2023-04-20T07:32:22.051Z,15.15
2023-04-20T07:33:21.864Z,14.39
2023-04-20T07:34:22.333Z,14.12
2023-04-20T07:35:21.870Z,14.74
2023-04-20T07:36:21.914Z,15.41
2023-04-20T07:37:21.894Z,15.50
2023-04-20T07:38:21.884Z,16.22
2023-04-20T07:39:22.433Z,15.82
2023-04-20T07:40:21.948Z,15.75
2023-04-20T07:41:21.930Z,13.91
2023-04-20T07:42:21.983Z,13.35
2023-04-20T07:43:21.971Z,14.68
2023-04-20T07:44:22.035Z,14.34
2023-04-20T07:45:22.062Z,14.17
2023-04-20T07:46:22.334Z,14.75
2023-04-20T07:47:22.205Z,14.37
2023-04-20T07:48:22.200Z,13.68
2023-04-20T07:49:22.327Z,15.24
2023-04-20T07:50:22.228Z,15.57
2023-04-20T07:51:22.266Z,15.68
2023-04-20T07:52:22.292Z,16.76
2023-04-20T07:53:22.252Z,16.50
2023-04-20T07:54:22.281Z,16.77
2023-04-20T07:55:22.308Z,15.95
2023-04-20T07:56:22.304Z,16.36
2023-04-20T07:57:30.767Z,16.53
2023-04-20T07:58:22.379Z,16.57
2023-04-20T07:59:22.484Z,16.64
2023-04-20T08:00:22.463Z,16.60
2023-04-20T08:01:22.431Z,16.99
2023-04-20T08:02:22.558Z,16.69
2023-04-20T08:03:22.791Z,17.03
2023-04-20T08:04:22.850Z,16.52
2023-04-20T08:05:22.555Z,16.88
2023-04-20T08:06:22.511Z,16.49
2023-04-20T08:07:22.529Z,16.17
2023-04-20T08:08:22.537Z,16.55
2023-04-20T08:09:22.555Z,16.15
2023-04-20T08:10:22.563Z,16.66
2023-04-20T08:11:22.644Z,16.57
2023-04-20T08:12:22.599Z,17.17
2023-04-20T08:13:22.593Z,16.44
2023-04-20T08:14:22.596Z,16.15
2023-04-20T08:15:22.602Z,15.99
2023-04-20T08:16:22.736Z,15.53
2023-04-20T08:17:22.601Z,14.73
2023-04-20T08:18:22.611Z,14.07
2023-04-20T08:19:23.068Z,14.81
2023-04-20T08:20:22.598Z,15.41
2023-04-20T08:21:24.855Z,15.69
2023-04-20T08:22:22.548Z,15.75
2023-04-20T08:23:22.635Z,15.45
2023-04-20T08:24:22.523Z,15.30
2023-04-20T08:25:23.793Z,14.91
2023-04-20T08:26:22.671Z,14.91
2023-04-20T08:27:22.677Z,14.48
2023-04-20T08:28:32.947Z,14.16
2023-04-20T08:29:23.730Z,14.89
2023-04-20T08:30:22.680Z,14.82
2023-04-20T08:31:22.732Z,14.52
2023-04-20T08:32:22.685Z,13.97
2023-04-20T08:33:22.650Z,13.16
2023-04-20T08:34:22.717Z,13.96
2023-04-20T08:35:22.576Z,13.86
2023-04-20T08:36:22.605Z,14.50
2023-04-20T08:37:22.680Z,15.00
2023-04-20T08:38:32.901Z,15.57
2023-04-20T08:39:23.891Z,15.63
2023-04-20T08:40:22.516Z,15.85
2023-04-20T08:41:22.539Z,16.06
2023-04-20T08:42:22.489Z,16.32
2023-04-20T08:43:22.544Z,15.91
2023-04-20T08:44:22.492Z,15.57
2023-04-20T08:45:22.489Z,16.50
2023-04-20T08:46:22.464Z,18.10
2023-04-20T08:47:22.680Z,20.04
2023-04-20T08:48:22.563Z,20.20
2023-04-20T08:49:22.907Z,21.07
2023-04-20T08:50:22.739Z,20.40
2023-04-20T08:51:22.704Z,21.37
2023-04-20T08:52:22.741Z,21.28
2023-04-20T08:53:22.850Z,18.98
2023-04-20T08:54:24.309Z,17.56
2023-04-20T08:55:22.895Z,17.89
2023-04-20T08:56:22.981Z,18.69
2023-04-20T08:57:22.999Z,19.88
2023-04-20T08:58:23.057Z,20.75
2023-04-20T08:59:23.145Z,20.85
2023-04-20T09:00:23.239Z,21.02
2023-04-20T09:01:34.405Z,22.04
2023-04-20T09:02:24.324Z,22.08
2023-04-20T09:03:23.537Z,22.04
2023-04-20T09:04:23.647Z,21.14
2023-04-20T09:05:23.315Z,21.45
2023-04-20T09:06:23.493Z,22.43
2023-04-20T09:07:23.160Z,22.76
2023-04-20T09:08:23.151Z,22.76
2023-04-20T09:09:23.173Z,24.17
2023-04-20T09:10:23.197Z,23.81
2023-04-20T09:11:23.242Z,24.91
2023-04-20T09:12:23.241Z,25.39
2023-04-20T09:13:23.290Z,25.65
2023-04-20T09:14:23.349Z,25.68
2023-04-20T09:15:23.412Z,26.43
2023-04-20T09:16:23.436Z,26.52
2023-04-20T09:17:23.521Z,25.72
2023-04-20T09:18:23.498Z,26.01
2023-04-20T09:19:23.596Z,26.98
2023-04-20T09:20:23.626Z,26.87
2023-04-20T09:21:23.692Z,27.16
2023-04-20T09:22:23.738Z,27.31
2023-04-20T09:23:23.792Z,27.45
2023-04-20T09:24:23.843Z,27.82
2023-04-20T09:25:23.835Z,28.29
2023-04-20T09:26:23.903Z,28.01
2023-04-20T09:27:23.950Z,28.64
2023-04-20T09:28:23.983Z,28.90
2023-04-20T09:29:24.070Z,28.39
2023-04-20T09:30:24.111Z,28.54
2023-04-20T09:31:24.172Z,27.44
2023-04-20T09:32:24.238Z,27.02
2023-04-20T09:33:24.218Z,26.49
2023-04-20T09:34:24.401Z,26.79
2023-04-20T09:35:24.334Z,27.23
2023-04-20T09:36:24.391Z,26.68
2023-04-20T09:37:24.432Z,26.64
2023-04-20T09:38:24.467Z,28.95
2023-04-20T09:39:24.904Z,27.32
2023-04-20T09:40:24.523Z,26.34
2023-04-20T09:41:24.585Z,27.30
2023-04-20T09:42:24.610Z,27.85
2023-04-20T09:43:24.631Z,26.60
2023-04-20T09:44:24.933Z,26.50
2023-04-20T09:45:24.704Z,24.01
2023-04-20T09:46:24.780Z,23.02
2023-04-20T09:47:24.758Z,23.80
2023-04-20T09:48:24.792Z,22.09
2023-04-20T09:49:24.814Z,22.48
2023-04-20T09:50:31.879Z,22.20
2023-04-20T09:51:25.961Z,20.99
2023-04-20T09:52:24.833Z,21.02
2023-04-20T09:53:24.918Z,22.60
2023-04-20T09:54:24.817Z,22.30
2023-04-20T09:55:24.797Z,22.01
2023-04-20T09:56:24.804Z,23.12
2023-04-20T09:57:24.809Z,23.02
2023-04-20T09:58:24.785Z,22.83
2023-04-20T09:59:24.770Z,23.53
2023-04-20T10:00:24.735Z,21.67
2023-04-20T10:01:24.738Z,22.24
2023-04-20T10:02:24.949Z,24.97
2023-04-20T10:03:24.894Z,25.78
2023-04-20T10:04:25.193Z,24.59
2023-04-20T10:05:24.739Z,20.00
2023-04-20T10:06:24.785Z,21.72
2023-04-20T10:07:24.863Z,21.82
2023-04-20T10:08:24.918Z,21.53
2023-04-20T10:09:24.974Z,20.90
2023-04-20T10:10:25.001Z,21.12
2023-04-20T10:11:25.276Z,21.52
2023-04-20T10:12:25.142Z,21.28
2023-04-20T10:13:25.193Z,22.11
2023-04-20T10:14:25.211Z,21.67
2023-04-20T10:15:25.245Z,22.25
2023-04-20T10:16:25.340Z,22.09
2023-04-20T10:17:25.476Z,21.69
2023-04-20T10:18:25.466Z,21.95
2023-04-20T10:19:25.426Z,22.13
2023-04-20T10:20:25.455Z,22.24
2023-04-20T10:21:25.508Z,22.82
2023-04-20T10:22:25.539Z,22.01
2023-04-20T10:23:25.570Z,23.05
2023-04-20T10:24:25.925Z,22.54
2023-04-20T10:25:25.621Z,21.86
2023-04-20T10:26:25.650Z,21.09
2023-04-20T10:27:25.721Z,22.34
2023-04-20T10:28:25.737Z,21.64
2023-04-20T10:29:25.800Z,21.58
2023-04-20T10:30:25.808Z,21.36
2023-04-20T10:31:25.892Z,22.18
2023-04-20T10:32:25.988Z,21.66
2023-04-20T10:33:25.950Z,20.96
2023-04-20T10:34:25.999Z,21.45
2023-04-20T10:35:26.032Z,21.58
2023-04-20T10:36:26.087Z,20.02
2023-04-20T10:37:26.118Z,20.81
2023-04-20T10:38:26.148Z,19.24
2023-04-20T10:39:26.441Z,20.18
2023-04-20T10:40:26.189Z,20.92
2023-04-20T10:41:26.234Z,20.98
2023-04-20T10:42:26.260Z,19.83
2023-04-20T10:43:26.308Z,19.28
2023-04-20T10:44:26.338Z,17.94
2023-04-20T10:45:26.363Z,16.92
2023-04-20T10:46:26.405Z,16.50
2023-04-20T10:47:26.440Z,16.63
2023-04-20T10:48:26.425Z,18.25
2023-04-20T10:49:26.449Z,17.98
2023-04-20T10:50:26.487Z,17.68
2023-04-20T10:51:26.510Z,17.19
2023-04-20T10:52:26.514Z,16.81
2023-04-20T10:53:26.528Z,16.66
2023-04-20T10:54:26.535Z,16.15
2023-04-20T10:55:26.688Z,15.53
2023-04-20T10:56:26.584Z,15.58
2023-04-20T10:57:26.609Z,15.43
2023-04-20T10:58:26.644Z,15.29
2023-04-20T10:59:26.676Z,15.00
2023-04-20T11:00:26.696Z,15.11
2023-04-20T11:01:26.712Z,15.29
2023-04-20T11:02:26.890Z,14.84
2023-04-20T11:03:26.858Z,14.93
2023-04-20T11:04:26.865Z,14.43
2023-04-20T11:05:26.875Z,14.14
2023-04-20T11:06:26.874Z,14.17
2023-04-20T11:07:26.866Z,14.28
2023-04-20T11:08:26.906Z,14.04
2023-04-20T11:09:26.923Z,13.88
2023-04-20T11:10:26.990Z,13.65
2023-04-20T11:11:27.007Z,13.00
2023-04-20T11:12:27.016Z,12.21
2023-04-20T11:13:27.061Z,12.86
2023-04-20T11:14:27.126Z,13.04
2023-04-20T11:15:27.096Z,12.49
2023-04-20T11:16:40.319Z,11.85
2023-04-20T11:17:28.329Z,11.88
2023-04-20T11:18:27.093Z,12.00
2023-04-20T11:19:27.084Z,12.26
2023-04-20T11:20:27.084Z,12.30
2023-04-20T11:21:27.041Z,12.54
2023-04-20T11:22:27.074Z,12.50
2023-04-20T11:23:27.042Z,12.85
2023-04-20T11:24:27.010Z,12.86
2023-04-20T11:25:27.043Z,13.22
2023-04-20T11:26:26.996Z,12.43
2023-04-20T11:27:27.004Z,12.39
2023-04-20T11:28:26.972Z,12.87
2023-04-20T11:29:27.029Z,12.74
2023-04-20T11:30:27.437Z,11.70
2023-04-20T11:31:27.096Z,10.91
2023-04-20T11:32:27.123Z,11.45
2023-04-20T11:33:27.157Z,11.54
2023-04-20T11:34:27.100Z,12.27
2023-04-20T11:35:27.436Z,11.63
2023-04-20T11:36:27.137Z,11.37
2023-04-20T11:37:27.182Z,11.22
2023-04-20T11:38:27.248Z,11.51
2023-04-20T11:39:27.242Z,11.58
2023-04-20T11:40:28.516Z,11.25
2023-04-20T11:41:27.288Z,10.61
2023-04-20T11:42:27.340Z,10.86
2023-04-20T11:43:28.364Z,10.15
2023-04-20T11:44:27.458Z,10.43
2023-04-20T11:45:27.477Z,9.91
2023-04-20T11:46:27.538Z,10.13
2023-04-20T11:47:27.490Z,9.58
2023-04-20T11:48:27.513Z,9.32
2023-04-20T11:49:27.552Z,9.42
2023-04-20T11:50:27.612Z,9.11
2023-04-20T11:51:27.669Z,9.24
2023-04-20T11:52:27.716Z,9.33
2023-04-20T11:53:27.765Z,9.21
2023-04-20T11:54:27.840Z,8.74
2023-04-20T11:55:27.879Z,9.01
2023-04-20T11:56:28.663Z,8.88
2023-04-20T11:57:27.957Z,9.56
2023-04-20T11:58:27.978Z,9.66
2023-04-20T11:59:28.111Z,9.05
2023-04-20T12:00:28.096Z,8.78
2023-04-20T12:01:28.154Z,8.44
2023-04-20T12:02:28.337Z,8.30
2023-04-20T12:03:28.364Z,8.14
2023-04-20T12:04:28.556Z,7.96
2023-04-20T12:05:28.393Z,7.87
2023-04-20T12:06:28.418Z,8.02
2023-04-20T12:07:28.427Z,7.40
2023-04-20T12:08:28.514Z,7.79
2023-04-20T12:09:28.550Z,7.68
2023-04-20T12:10:28.589Z,8.06
2023-04-20T12:11:28.631Z,7.96
2023-04-20T12:12:28.757Z,7.98
2023-04-20T12:13:28.738Z,7.89
2023-04-20T12:14:28.790Z,7.64
2023-04-20T12:15:28.864Z,7.90
2023-04-20T12:16:29.007Z,7.72
2023-04-20T12:17:28.917Z,7.90
2023-04-20T12:18:28.919Z,7.92
2023-04-20T12:19:28.958Z,7.57
2023-04-20T12:20:28.985Z,7.52
2023-04-20T12:21:29.058Z,7.86
2023-04-20T12:22:29.080Z,8.09
2023-04-20T12:23:29.142Z,7.75
2023-04-20T12:24:29.184Z,8.26
2023-04-20T12:25:29.183Z,8.00
2023-04-20T12:26:37.956Z,8.10
2023-04-20T12:27:30.248Z,8.10
2023-04-20T12:28:29.227Z,8.08
2023-04-20T12:29:29.200Z,7.98
2023-04-20T12:30:29.200Z,8.17
2023-04-20T12:31:29.411Z,8.04
2023-04-20T12:32:29.206Z,8.06
2023-04-20T12:33:29.188Z,7.88
2023-04-20T12:34:30.698Z,7.88
2023-04-20T12:35:29.165Z,7.68
2023-04-20T12:36:29.144Z,7.64
2023-04-20T12:37:29.120Z,7.63
2023-04-20T12:38:29.108Z,7.57
2023-04-20T12:39:29.126Z,7.35
2023-04-20T12:40:29.084Z,7.33
2023-04-20T12:41:29.093Z,7.24
2023-04-20T12:42:29.153Z,6.94
2023-04-20T12:43:29.141Z,6.83
2023-04-20T12:44:29.189Z,7.13
2023-04-20T12:45:29.211Z,7.24
2023-04-20T12:46:29.309Z,7.18
2023-04-20T12:47:29.261Z,7.00
2023-04-20T12:48:29.247Z,7.00
2023-04-20T12:49:29.703Z,6.95
2023-04-20T12:50:29.330Z,6.90
2023-04-20T12:51:29.380Z,6.83
2023-04-20T12:52:29.392Z,6.76
2023-04-20T12:53:29.422Z,7.08
2023-04-20T12:54:29.472Z,6.82
2023-04-20T12:55:29.482Z,6.55
2023-04-20T12:56:29.523Z,6.62
2023-04-20T12:57:29.518Z,6.54
2023-04-20T12:58:29.637Z,6.51
2023-04-20T12:59:29.582Z,6.42
2023-04-20T13:00:29.625Z,6.32
2023-04-20T13:01:29.770Z,6.23
2023-04-20T13:02:29.832Z,6.35
2023-04-20T13:03:29.864Z,6.42
2023-04-20T13:04:29.775Z,6.62
2023-04-20T13:05:29.778Z,6.48
2023-04-20T13:06:29.804Z,6.53
2023-04-20T13:07:29.821Z,6.37